sensor_id;sensor_type;location;lat;lon;timestamp;temperature;humidity
35463;DHT22;21578;47.892;9.970;2022-08-01T00:01:02;20.50;83.60
35463;DHT22;21578;47.892;9.970;2022-08-01T00:05:49;20.40;84.70
35463;DHT22;21578;47.892;9.970;2022-08-01T00:10:36;20.30;84.80
35463;DHT22;21578;47.892;9.970;2022-08-01T00:15:24;20.20;85.00
35463;DHT22;21578;47.892;9.970;2022-08-01T00:20:13;20.20;85.10
35463;DHT22;21578;47.892;9.970;2022-08-01T00:25:00;20.10;85.40
35463;DHT22;21578;47.892;9.970;2022-08-01T00:29:47;20.00;85.80
35463;DHT22;21578;47.892;9.970;2022-08-01T00:34:35;19.90;86.00
35463;DHT22;21578;47.892;9.970;2022-08-01T00:39:22;19.90;85.80
35463;DHT22;21578;47.892;9.970;2022-08-01T00:44:09;19.80;86.60
35463;DHT22;21578;47.892;9.970;2022-08-01T00:48:57;19.80;86.50
35463;DHT22;21578;47.892;9.970;2022-08-01T00:53:45;19.70;86.00
35463;DHT22;21578;47.892;9.970;2022-08-01T00:58:33;19.60;85.80
35463;DHT22;21578;47.892;9.970;2022-08-01T01:03:22;19.60;86.00
35463;DHT22;21578;47.892;9.970;2022-08-01T01:08:16;19.50;85.40
35463;DHT22;21578;47.892;9.970;2022-08-01T01:13:10;19.60;85.20
35463;DHT22;21578;47.892;9.970;2022-08-01T01:18:02;19.50;84.50
35463;DHT22;21578;47.892;9.970;2022-08-01T01:23:10;19.40;85.40
35463;DHT22;21578;47.892;9.970;2022-08-01T01:28:06;19.40;84.90
35463;DHT22;21578;47.892;9.970;2022-08-01T01:32:59;19.40;85.70
35463;DHT22;21578;47.892;9.970;2022-08-01T01:37:49;19.50;84.80
35463;DHT22;21578;47.892;9.970;2022-08-01T01:42:38;19.40;85.50
35463;DHT22;21578;47.892;9.970;2022-08-01T01:47:27;19.30;86.80
35463;DHT22;21578;47.892;9.970;2022-08-01T01:52:17;19.30;86.70
35463;DHT22;21578;47.892;9.970;2022-08-01T01:57:06;19.20;87.00
35463;DHT22;21578;47.892;9.970;2022-08-01T02:01:56;19.20;86.70
35463;DHT22;21578;47.892;9.970;2022-08-01T02:06:46;19.20;87.20
35463;DHT22;21578;47.892;9.970;2022-08-01T02:11:35;19.20;87.10
35463;DHT22;21578;47.892;9.970;2022-08-01T02:16:24;19.20;87.90
35463;DHT22;21578;47.892;9.970;2022-08-01T02:21:14;19.20;87.80
35463;DHT22;21578;47.892;9.970;2022-08-01T02:26:07;19.10;87.00
35463;DHT22;21578;47.892;9.970;2022-08-01T02:31:00;19.00;87.70
35463;DHT22;21578;47.892;9.970;2022-08-01T02:35:50;19.10;88.20
35463;DHT22;21578;47.892;9.970;2022-08-01T02:40:41;19.10;87.30
35463;DHT22;21578;47.892;9.970;2022-08-01T02:45:31;19.10;87.50
35463;DHT22;21578;47.892;9.970;2022-08-01T02:50:23;19.10;87.60
35463;DHT22;21578;47.892;9.970;2022-08-01T02:55:13;19.10;88.50
35463;DHT22;21578;47.892;9.970;2022-08-01T03:00:01;19.20;87.40
35463;DHT22;21578;47.892;9.970;2022-08-01T03:04:49;19.10;88.40
35463;DHT22;21578;47.892;9.970;2022-08-01T03:09:40;19.00;89.30
35463;DHT22;21578;47.892;9.970;2022-08-01T03:14:29;19.00;89.50
35463;DHT22;21578;47.892;9.970;2022-08-01T03:19:18;18.90;90.00
35463;DHT22;21578;47.892;9.970;2022-08-01T03:24:08;18.80;90.30
35463;DHT22;21578;47.892;9.970;2022-08-01T03:29:02;18.70;90.80
35463;DHT22;21578;47.892;9.970;2022-08-01T03:33:52;18.70;90.70
35463;DHT22;21578;47.892;9.970;2022-08-01T03:38:40;18.60;90.90
35463;DHT22;21578;47.892;9.970;2022-08-01T03:43:31;18.60;90.70
35463;DHT22;21578;47.892;9.970;2022-08-01T03:48:27;18.50;91.00
35463;DHT22;21578;47.892;9.970;2022-08-01T03:53:16;18.50;91.10
35463;DHT22;21578;47.892;9.970;2022-08-01T03:58:08;18.40;90.90
35463;DHT22;21578;47.892;9.970;2022-08-01T04:02:56;18.40;91.10
35463;DHT22;21578;47.892;9.970;2022-08-01T04:07:47;18.30;90.50
35463;DHT22;21578;47.892;9.970;2022-08-01T04:12:40;18.30;90.70
35463;DHT22;21578;47.892;9.970;2022-08-01T04:17:28;18.30;90.90
35463;DHT22;21578;47.892;9.970;2022-08-01T04:22:15;18.30;90.70
35463;DHT22;21578;47.892;9.970;2022-08-01T04:27:08;18.20;90.90
35463;DHT22;21578;47.892;9.970;2022-08-01T04:31:57;18.20;91.30
35463;DHT22;21578;47.892;9.970;2022-08-01T04:36:46;18.20;91.00
35463;DHT22;21578;47.892;9.970;2022-08-01T04:41:34;18.20;90.90
35463;DHT22;21578;47.892;9.970;2022-08-01T04:46:23;18.20;90.30
35463;DHT22;21578;47.892;9.970;2022-08-01T04:51:13;18.20;90.40
35463;DHT22;21578;47.892;9.970;2022-08-01T04:56:01;18.30;90.50
35463;DHT22;21578;47.892;9.970;2022-08-01T05:00:49;18.30;90.60
35463;DHT22;21578;47.892;9.970;2022-08-01T05:05:37;18.30;88.50
35463;DHT22;21578;47.892;9.970;2022-08-01T05:10:24;18.30;89.40
35463;DHT22;21578;47.892;9.970;2022-08-01T05:15:12;18.50;87.80
35463;DHT22;21578;47.892;9.970;2022-08-01T05:19:59;18.60;87.30
35463;DHT22;21578;47.892;9.970;2022-08-01T05:24:48;18.60;86.90
35463;DHT22;21578;47.892;9.970;2022-08-01T05:29:35;18.70;86.60
35463;DHT22;21578;47.892;9.970;2022-08-01T05:34:22;18.80;86.30
35463;DHT22;21578;47.892;9.970;2022-08-01T05:39:09;18.90;85.10
35463;DHT22;21578;47.892;9.970;2022-08-01T05:43:58;18.90;85.60
35463;DHT22;21578;47.892;9.970;2022-08-01T05:48:45;19.00;87.70
35463;DHT22;21578;47.892;9.970;2022-08-01T05:53:32;19.00;88.10
35463;DHT22;21578;47.892;9.970;2022-08-01T05:58:20;19.00;89.40
35463;DHT22;21578;47.892;9.970;2022-08-01T06:03:08;19.00;88.20
35463;DHT22;21578;47.892;9.970;2022-08-01T06:07:56;19.10;88.30
35463;DHT22;21578;47.892;9.970;2022-08-01T06:12:44;19.20;87.70
35463;DHT22;21578;47.892;9.970;2022-08-01T06:17:31;19.30;87.50
35463;DHT22;21578;47.892;9.970;2022-08-01T06:22:19;19.60;85.70
35463;DHT22;21578;47.892;9.970;2022-08-01T06:27:06;19.70;85.20
35463;DHT22;21578;47.892;9.970;2022-08-01T06:31:53;19.90;84.40
35463;DHT22;21578;47.892;9.970;2022-08-01T06:36:40;20.10;83.70
35463;DHT22;21578;47.892;9.970;2022-08-01T06:41:29;20.30;82.90
35463;DHT22;21578;47.892;9.970;2022-08-01T06:46:16;20.40;83.60
35463;DHT22;21578;47.892;9.970;2022-08-01T06:51:03;20.50;79.50
35463;DHT22;21578;47.892;9.970;2022-08-01T06:55:59;20.60;80.30
35463;DHT22;21578;47.892;9.970;2022-08-01T07:00:47;20.70;79.30
35463;DHT22;21578;47.892;9.970;2022-08-01T07:05:34;20.80;79.00
35463;DHT22;21578;47.892;9.970;2022-08-01T07:10:22;20.90;78.10
35463;DHT22;21578;47.892;9.970;2022-08-01T07:15:10;21.00;79.10
35463;DHT22;21578;47.892;9.970;2022-08-01T07:19:58;21.10;78.60
35463;DHT22;21578;47.892;9.970;2022-08-01T07:24:45;21.20;79.40
35463;DHT22;21578;47.892;9.970;2022-08-01T07:29:32;21.20;79.00
35463;DHT22;21578;47.892;9.970;2022-08-01T07:34:20;21.30;79.00
35463;DHT22;21578;47.892;9.970;2022-08-01T07:39:08;21.40;78.60
35463;DHT22;21578;47.892;9.970;2022-08-01T07:43:55;21.40;79.20
35463;DHT22;21578;47.892;9.970;2022-08-01T07:48:42;21.50;78.40
35463;DHT22;21578;47.892;9.970;2022-08-01T07:53:29;21.70;75.70
35463;DHT22;21578;47.892;9.970;2022-08-01T07:58:18;21.60;75.50
35463;DHT22;21578;47.892;9.970;2022-08-01T08:03:05;21.80;75.60
35463;DHT22;21578;47.892;9.970;2022-08-01T08:07:52;21.90;75.10
35463;DHT22;21578;47.892;9.970;2022-08-01T08:12:39;22.10;73.70
35463;DHT22;21578;47.892;9.970;2022-08-01T08:17:28;22.10;74.00
35463;DHT22;21578;47.892;9.970;2022-08-01T08:22:15;22.20;74.20
35463;DHT22;21578;47.892;9.970;2022-08-01T08:27:03;22.30;72.80
35463;DHT22;21578;47.892;9.970;2022-08-01T08:31:51;22.40;72.30
35463;DHT22;21578;47.892;9.970;2022-08-01T08:36:39;22.30;73.60
35463;DHT22;21578;47.892;9.970;2022-08-01T08:41:27;22.50;72.40
35463;DHT22;21578;47.892;9.970;2022-08-01T08:46:14;22.60;72.30
35463;DHT22;21578;47.892;9.970;2022-08-01T08:51:01;22.70;72.50
35463;DHT22;21578;47.892;9.970;2022-08-01T08:55:50;22.80;72.70
35463;DHT22;21578;47.892;9.970;2022-08-01T09:00:38;22.90;71.90
35463;DHT22;21578;47.892;9.970;2022-08-01T09:05:26;22.90;72.00
35463;DHT22;21578;47.892;9.970;2022-08-01T09:10:13;23.00;71.90
35463;DHT22;21578;47.892;9.970;2022-08-01T09:15:01;23.20;71.20
35463;DHT22;21578;47.892;9.970;2022-08-01T09:19:51;23.40;70.10
35463;DHT22;21578;47.892;9.970;2022-08-01T09:24:38;23.40;70.10
35463;DHT22;21578;47.892;9.970;2022-08-01T09:29:27;23.50;70.40
35463;DHT22;21578;47.892;9.970;2022-08-01T09:34:23;23.70;70.40
35463;DHT22;21578;47.892;9.970;2022-08-01T09:39:12;23.80;69.40
35463;DHT22;21578;47.892;9.970;2022-08-01T09:43:59;24.00;69.70
35463;DHT22;21578;47.892;9.970;2022-08-01T09:49:00;24.00;68.70
35463;DHT22;21578;47.892;9.970;2022-08-01T09:53:49;24.00;68.70
35463;DHT22;21578;47.892;9.970;2022-08-01T09:58:49;24.10;67.50
35463;DHT22;21578;47.892;9.970;2022-08-01T10:03:36;24.20;67.60
35463;DHT22;21578;47.892;9.970;2022-08-01T10:08:23;24.40;68.10
35463;DHT22;21578;47.892;9.970;2022-08-01T10:13:12;24.60;67.30
35463;DHT22;21578;47.892;9.970;2022-08-01T10:18:04;24.70;67.80
35463;DHT22;21578;47.892;9.970;2022-08-01T10:22:54;24.90;65.90
35463;DHT22;21578;47.892;9.970;2022-08-01T10:27:43;24.80;66.40
35463;DHT22;21578;47.892;9.970;2022-08-01T10:32:33;24.60;66.40
35463;DHT22;21578;47.892;9.970;2022-08-01T10:37:20;24.80;68.00
35463;DHT22;21578;47.892;9.970;2022-08-01T10:42:09;24.90;65.40
35463;DHT22;21578;47.892;9.970;2022-08-01T10:47:02;25.10;65.90
35463;DHT22;21578;47.892;9.970;2022-08-01T10:51:51;25.10;66.00
35463;DHT22;21578;47.892;9.970;2022-08-01T10:56:40;25.10;67.50
35463;DHT22;21578;47.892;9.970;2022-08-01T11:01:30;25.50;67.10
35463;DHT22;21578;47.892;9.970;2022-08-01T11:06:22;25.80;66.10
35463;DHT22;21578;47.892;9.970;2022-08-01T11:11:12;25.90;63.80
35463;DHT22;21578;47.892;9.970;2022-08-01T11:16:26;25.80;63.20
35463;DHT22;21578;47.892;9.970;2022-08-01T11:21:14;25.90;65.00
35463;DHT22;21578;47.892;9.970;2022-08-01T11:26:13;26.00;63.70
35463;DHT22;21578;47.892;9.970;2022-08-01T11:31:24;26.40;64.50
35463;DHT22;21578;47.892;9.970;2022-08-01T11:36:18;26.80;62.70
35463;DHT22;21578;47.892;9.970;2022-08-01T11:41:10;27.10;61.10
35463;DHT22;21578;47.892;9.970;2022-08-01T11:45:59;27.40;59.00
35463;DHT22;21578;47.892;9.970;2022-08-01T11:50:47;27.30;60.40
35463;DHT22;21578;47.892;9.970;2022-08-01T11:55:36;27.60;58.70
35463;DHT22;21578;47.892;9.970;2022-08-01T12:00:23;27.80;56.40
35463;DHT22;21578;47.892;9.970;2022-08-01T12:05:12;28.00;56.90
35463;DHT22;21578;47.892;9.970;2022-08-01T12:10:01;28.00;56.00
35463;DHT22;21578;47.892;9.970;2022-08-01T12:14:56;27.80;57.00
35463;DHT22;21578;47.892;9.970;2022-08-01T12:19:43;28.30;58.60
35463;DHT22;21578;47.892;9.970;2022-08-01T12:24:31;28.90;57.20
35463;DHT22;21578;47.892;9.970;2022-08-01T12:29:31;29.50;55.10
35463;DHT22;21578;47.892;9.970;2022-08-01T12:34:28;29.90;54.20
35463;DHT22;21578;47.892;9.970;2022-08-01T12:39:15;29.50;52.60
35463;DHT22;21578;47.892;9.970;2022-08-01T12:44:13;28.80;54.80
35463;DHT22;21578;47.892;9.970;2022-08-01T12:49:00;29.00;53.60
35463;DHT22;21578;47.892;9.970;2022-08-01T12:53:48;29.60;54.70
35463;DHT22;21578;47.892;9.970;2022-08-01T12:58:35;29.60;53.60
35463;DHT22;21578;47.892;9.970;2022-08-01T13:03:23;30.20;49.60
35463;DHT22;21578;47.892;9.970;2022-08-01T13:08:12;30.50;50.40
35463;DHT22;21578;47.892;9.970;2022-08-01T13:12:59;30.50;49.80
35463;DHT22;21578;47.892;9.970;2022-08-01T13:17:46;30.70;50.20
35463;DHT22;21578;47.892;9.970;2022-08-01T13:22:35;30.40;51.30
35463;DHT22;21578;47.892;9.970;2022-08-01T13:27:23;29.80;52.90
35463;DHT22;21578;47.892;9.970;2022-08-01T13:32:14;29.20;53.40
35463;DHT22;21578;47.892;9.970;2022-08-01T13:37:02;28.60;53.80
35463;DHT22;21578;47.892;9.970;2022-08-01T13:41:51;28.20;53.90
35463;DHT22;21578;47.892;9.970;2022-08-01T13:46:39;28.10;54.90
35463;DHT22;21578;47.892;9.970;2022-08-01T13:51:26;27.90;53.10
35463;DHT22;21578;47.892;9.970;2022-08-01T13:56:13;27.80;54.80
35463;DHT22;21578;47.892;9.970;2022-08-01T14:01:03;27.70;53.40
35463;DHT22;21578;47.892;9.970;2022-08-01T14:05:50;27.60;52.70
35463;DHT22;21578;47.892;9.970;2022-08-01T14:10:37;27.50;53.30
35463;DHT22;21578;47.892;9.970;2022-08-01T14:15:24;27.20;53.90
35463;DHT22;21578;47.892;9.970;2022-08-01T14:20:13;27.00;55.20
35463;DHT22;21578;47.892;9.970;2022-08-01T14:25:00;27.00;56.40
35463;DHT22;21578;47.892;9.970;2022-08-01T14:29:47;26.80;57.50
35463;DHT22;21578;47.892;9.970;2022-08-01T14:34:34;26.60;59.40
35463;DHT22;21578;47.892;9.970;2022-08-01T14:39:22;26.50;58.90
35463;DHT22;21578;47.892;9.970;2022-08-01T14:44:09;26.40;59.50
35463;DHT22;21578;47.892;9.970;2022-08-01T14:48:56;26.20;62.30
35463;DHT22;21578;47.892;9.970;2022-08-01T14:53:44;25.70;67.20
35463;DHT22;21578;47.892;9.970;2022-08-01T14:58:32;25.50;69.60
35463;DHT22;21578;47.892;9.970;2022-08-01T15:03:19;25.00;71.70
35463;DHT22;21578;47.892;9.970;2022-08-01T15:08:07;25.00;72.00
35463;DHT22;21578;47.892;9.970;2022-08-01T15:12:54;24.70;73.10
35463;DHT22;21578;47.892;9.970;2022-08-01T15:17:42;24.90;72.20
35463;DHT22;21578;47.892;9.970;2022-08-01T15:22:30;25.10;70.60
35463;DHT22;21578;47.892;9.970;2022-08-01T15:27:18;25.20;70.80
35463;DHT22;21578;47.892;9.970;2022-08-01T15:32:06;24.90;71.50
35463;DHT22;21578;47.892;9.970;2022-08-01T15:36:55;24.40;72.30
35463;DHT22;21578;47.892;9.970;2022-08-01T15:41:43;24.50;73.10
35463;DHT22;21578;47.892;9.970;2022-08-01T15:46:30;24.60;72.70
35463;DHT22;21578;47.892;9.970;2022-08-01T15:51:17;24.40;73.20
35463;DHT22;21578;47.892;9.970;2022-08-01T15:56:05;24.90;72.30
35463;DHT22;21578;47.892;9.970;2022-08-01T16:00:52;24.90;71.30
35463;DHT22;21578;47.892;9.970;2022-08-01T16:05:39;24.70;71.70
35463;DHT22;21578;47.892;9.970;2022-08-01T16:10:29;24.60;72.30
35463;DHT22;21578;47.892;9.970;2022-08-01T16:15:17;24.50;72.50
35463;DHT22;21578;47.892;9.970;2022-08-01T16:20:06;24.50;73.00
35463;DHT22;21578;47.892;9.970;2022-08-01T16:24:53;24.50;74.10
35463;DHT22;21578;47.892;9.970;2022-08-01T17:16:22;23.70;78.30
35463;DHT22;21578;47.892;9.970;2022-08-01T17:21:09;23.90;78.70
35463;DHT22;21578;47.892;9.970;2022-08-01T17:25:56;24.00;78.10
35463;DHT22;21578;47.892;9.970;2022-08-01T17:30:43;24.00;77.40
35463;DHT22;21578;47.892;9.970;2022-08-01T17:35:32;24.00;77.10
35463;DHT22;21578;47.892;9.970;2022-08-01T17:40:19;24.00;77.20
35463;DHT22;21578;47.892;9.970;2022-08-01T17:45:08;24.10;76.70
35463;DHT22;21578;47.892;9.970;2022-08-01T17:49:55;24.00;76.80
35463;DHT22;21578;47.892;9.970;2022-08-01T17:54:43;23.80;76.80
35463;DHT22;21578;47.892;9.970;2022-08-01T17:59:30;23.70;77.30
35463;DHT22;21578;47.892;9.970;2022-08-01T18:04:17;23.60;77.90
35463;DHT22;21578;47.892;9.970;2022-08-01T18:09:04;23.50;77.90
35463;DHT22;21578;47.892;9.970;2022-08-01T18:13:53;23.30;78.50
35463;DHT22;21578;47.892;9.970;2022-08-01T18:18:41;23.00;80.30
35463;DHT22;21578;47.892;9.970;2022-08-01T18:23:28;22.70;81.70
35463;DHT22;21578;47.892;9.970;2022-08-01T18:28:15;22.60;81.30
35463;DHT22;21578;47.892;9.970;2022-08-01T18:33:03;22.50;82.20
35463;DHT22;21578;47.892;9.970;2022-08-01T18:37:51;22.40;83.10
35463;DHT22;21578;47.892;9.970;2022-08-01T18:42:38;22.10;84.10
35463;DHT22;21578;47.892;9.970;2022-08-01T18:47:26;22.00;85.60
35463;DHT22;21578;47.892;9.970;2022-08-01T18:52:14;22.00;86.80
35463;DHT22;21578;47.892;9.970;2022-08-01T18:57:01;22.00;86.30
35463;DHT22;21578;47.892;9.970;2022-08-01T19:01:48;21.90;85.70
35463;DHT22;21578;47.892;9.970;2022-08-01T19:06:35;21.90;86.10
35463;DHT22;21578;47.892;9.970;2022-08-01T19:11:24;21.80;85.20
35463;DHT22;21578;47.892;9.970;2022-08-01T19:16:11;21.70;84.60
35463;DHT22;21578;47.892;9.970;2022-08-01T19:21:01;21.70;83.60
35463;DHT22;21578;47.892;9.970;2022-08-01T19:25:54;21.70;83.90
35463;DHT22;21578;47.892;9.970;2022-08-01T19:30:42;21.60;84.60
35463;DHT22;21578;47.892;9.970;2022-08-01T19:35:29;21.50;85.10
35463;DHT22;21578;47.892;9.970;2022-08-01T19:40:17;21.40;85.00
35463;DHT22;21578;47.892;9.970;2022-08-01T19:45:05;21.40;85.00
35463;DHT22;21578;47.892;9.970;2022-08-01T19:49:53;21.40;84.70
35463;DHT22;21578;47.892;9.970;2022-08-01T19:54:42;21.40;84.10
35463;DHT22;21578;47.892;9.970;2022-08-01T19:59:31;21.40;83.80
35463;DHT22;21578;47.892;9.970;2022-08-01T20:04:18;21.00;86.70
35463;DHT22;21578;47.892;9.970;2022-08-01T20:09:07;20.40;90.50
35463;DHT22;21578;47.892;9.970;2022-08-01T20:13:54;20.10;92.10
35463;DHT22;21578;47.892;9.970;2022-08-01T20:18:42;19.60;93.40
35463;DHT22;21578;47.892;9.970;2022-08-01T20:23:31;19.40;94.60
35463;DHT22;21578;47.892;9.970;2022-08-01T20:28:23;19.20;94.50
35463;DHT22;21578;47.892;9.970;2022-08-01T20:33:11;19.00;96.40
35463;DHT22;21578;47.892;9.970;2022-08-01T20:38:00;18.80;96.60
35463;DHT22;21578;47.892;9.970;2022-08-01T20:42:49;18.60;96.60
35463;DHT22;21578;47.892;9.970;2022-08-01T20:47:39;18.30;96.60
35463;DHT22;21578;47.892;9.970;2022-08-01T20:52:26;18.30;96.60
35463;DHT22;21578;47.892;9.970;2022-08-01T20:57:18;18.30;96.60
35463;DHT22;21578;47.892;9.970;2022-08-01T21:02:15;18.30;96.10
35463;DHT22;21578;47.892;9.970;2022-08-01T21:07:17;18.50;95.40
35463;DHT22;21578;47.892;9.970;2022-08-01T21:12:08;18.70;94.80
35463;DHT22;21578;47.892;9.970;2022-08-01T21:17:01;18.80;93.90
35463;DHT22;21578;47.892;9.970;2022-08-01T21:21:58;18.80;95.00
35463;DHT22;21578;47.892;9.970;2022-08-01T21:26:49;19.00;95.40
35463;DHT22;21578;47.892;9.970;2022-08-01T21:31:39;18.90;96.60
35463;DHT22;21578;47.892;9.970;2022-08-01T21:36:27;18.80;96.60
35463;DHT22;21578;47.892;9.970;2022-08-01T21:41:16;18.80;96.60
35463;DHT22;21578;47.892;9.970;2022-08-01T21:46:05;18.70;96.60
35463;DHT22;21578;47.892;9.970;2022-08-01T21:50:54;18.80;96.60
35463;DHT22;21578;47.892;9.970;2022-08-01T21:55:49;18.80;96.60
35463;DHT22;21578;47.892;9.970;2022-08-01T22:00:43;18.60;96.60
35463;DHT22;21578;47.892;9.970;2022-08-01T22:05:35;18.50;96.60
35463;DHT22;21578;47.892;9.970;2022-08-01T22:10:24;18.40;96.60
35463;DHT22;21578;47.892;9.970;2022-08-01T22:15:13;18.60;96.60
35463;DHT22;21578;47.892;9.970;2022-08-01T22:20:00;18.60;96.60
35463;DHT22;21578;47.892;9.970;2022-08-01T22:24:49;18.50;96.60
35463;DHT22;21578;47.892;9.970;2022-08-01T22:29:37;18.50;96.60
35463;DHT22;21578;47.892;9.970;2022-08-01T22:34:24;18.50;96.60
35463;DHT22;21578;47.892;9.970;2022-08-01T22:39:14;18.40;96.60
35463;DHT22;21578;47.892;9.970;2022-08-01T22:44:06;18.30;96.60
35463;DHT22;21578;47.892;9.970;2022-08-01T22:48:59;18.30;96.60
35463;DHT22;21578;47.892;9.970;2022-08-01T22:53:54;18.20;96.60
35463;DHT22;21578;47.892;9.970;2022-08-01T22:58:44;18.10;96.60
35463;DHT22;21578;47.892;9.970;2022-08-01T23:03:35;18.20;96.60
35463;DHT22;21578;47.892;9.970;2022-08-01T23:08:22;18.10;96.60
35463;DHT22;21578;47.892;9.970;2022-08-01T23:13:10;18.00;96.60
35463;DHT22;21578;47.892;9.970;2022-08-01T23:17:58;18.00;96.60
35463;DHT22;21578;47.892;9.970;2022-08-01T23:22:50;18.00;96.60
35463;DHT22;21578;47.892;9.970;2022-08-01T23:27:39;18.10;96.60
35463;DHT22;21578;47.892;9.970;2022-08-01T23:32:26;18.00;96.60
35463;DHT22;21578;47.892;9.970;2022-08-01T23:37:14;17.90;96.60
35463;DHT22;21578;47.892;9.970;2022-08-01T23:42:03;17.80;96.60
35463;DHT22;21578;47.892;9.970;2022-08-01T23:46:50;17.70;96.60
35463;DHT22;21578;47.892;9.970;2022-08-01T23:51:37;17.70;96.60
35463;DHT22;21578;47.892;9.970;2022-08-01T23:56:24;17.80;96.60
